sensor_id;sensor_type;location;lat;lon;timestamp;pressure;altitude;pressure_sealevel;temperature;humidity
62928;BME280;51070;52.236;-0.892;2022-08-05T00:00:46;101150.41;;;15.81;50.53
62928;BME280;51070;52.236;-0.892;2022-08-05T00:03:11;101148.93;;;15.77;50.77
62928;BME280;51070;52.236;-0.892;2022-08-05T00:05:37;101146.65;;;15.76;50.91
62928;BME280;51070;52.236;-0.892;2022-08-05T00:08:02;101143.46;;;15.73;51.06
62928;BME280;51070;52.236;-0.892;2022-08-05T00:10:27;101143.39;;;15.69;51.31
62928;BME280;51070;52.236;-0.892;2022-08-05T00:12:53;101144.70;;;15.64;51.37
62928;BME280;51070;52.236;-0.892;2022-08-05T00:15:18;101152.25;;;15.58;51.62
62928;BME280;51070;52.236;-0.892;2022-08-05T00:17:43;101152.66;;;15.53;51.70
62928;BME280;51070;52.236;-0.892;2022-08-05T00:20:09;101151.47;;;15.46;52.10
62928;BME280;51070;52.236;-0.892;2022-08-05T00:22:34;101149.79;;;15.40;52.37
62928;BME280;51070;52.236;-0.892;2022-08-05T00:25:00;101155.96;;;15.36;52.34
62928;BME280;51070;52.236;-0.892;2022-08-05T00:27:26;101152.23;;;15.32;52.48
62928;BME280;51070;52.236;-0.892;2022-08-05T00:29:52;101153.04;;;15.29;52.81
62928;BME280;51070;52.236;-0.892;2022-08-05T00:32:17;101157.52;;;15.26;52.73
62928;BME280;51070;52.236;-0.892;2022-08-05T00:34:43;101153.29;;;15.24;52.94
62928;BME280;51070;52.236;-0.892;2022-08-05T00:37:08;101154.25;;;15.19;53.13
62928;BME280;51070;52.236;-0.892;2022-08-05T00:39:34;101159.17;;;15.13;53.44
62928;BME280;51070;52.236;-0.892;2022-08-05T00:41:59;101162.36;;;15.08;53.66
62928;BME280;51070;52.236;-0.892;2022-08-05T00:44:24;101161.23;;;15.04;53.72
62928;BME280;51070;52.236;-0.892;2022-08-05T00:46:50;101153.67;;;15.00;54.00
62928;BME280;51070;52.236;-0.892;2022-08-05T00:49:15;101149.07;;;14.96;54.28
62928;BME280;51070;52.236;-0.892;2022-08-05T00:51:44;101155.65;;;14.95;54.34
62928;BME280;51070;52.236;-0.892;2022-08-05T00:54:10;101153.34;;;14.93;54.32
62928;BME280;51070;52.236;-0.892;2022-08-05T00:56:36;101144.91;;;14.89;54.42
62928;BME280;51070;52.236;-0.892;2022-08-05T00:59:01;101146.54;;;14.84;54.64
62928;BME280;51070;52.236;-0.892;2022-08-05T01:01:27;101145.22;;;14.79;54.97
62928;BME280;51070;52.236;-0.892;2022-08-05T01:03:52;101151.75;;;14.76;55.11
62928;BME280;51070;52.236;-0.892;2022-08-05T01:06:18;101151.02;;;14.74;55.23
62928;BME280;51070;52.236;-0.892;2022-08-05T01:08:43;101151.01;;;14.73;55.33
62928;BME280;51070;52.236;-0.892;2022-08-05T01:11:16;101147.34;;;14.72;55.47
62928;BME280;51070;52.236;-0.892;2022-08-05T01:16:09;101144.52;;;14.71;55.98
62928;BME280;51070;52.236;-0.892;2022-08-05T01:18:39;101139.25;;;14.68;56.06
62928;BME280;51070;52.236;-0.892;2022-08-05T01:28:44;101153.23;;;14.64;56.41
62928;BME280;51070;52.236;-0.892;2022-08-05T01:31:16;101159.55;;;14.66;56.43
62928;BME280;51070;52.236;-0.892;2022-08-05T01:34:01;101155.02;;;14.66;56.42
62928;BME280;51070;52.236;-0.892;2022-08-05T01:36:28;101155.55;;;14.66;56.50
62928;BME280;51070;52.236;-0.892;2022-08-05T01:38:55;101147.58;;;14.67;56.52
62928;BME280;51070;52.236;-0.892;2022-08-05T01:41:21;101148.24;;;14.66;56.47
62928;BME280;51070;52.236;-0.892;2022-08-05T01:43:47;101146.30;;;14.65;56.55
62928;BME280;51070;52.236;-0.892;2022-08-05T01:46:14;101138.43;;;14.63;56.75
62928;BME280;51070;52.236;-0.892;2022-08-05T01:48:40;101141.91;;;14.63;56.89
62928;BME280;51070;52.236;-0.892;2022-08-05T01:51:06;101150.25;;;14.62;57.09
62928;BME280;51070;52.236;-0.892;2022-08-05T01:53:33;101148.52;;;14.63;57.01
62928;BME280;51070;52.236;-0.892;2022-08-05T01:55:59;101144.29;;;14.60;56.96
62928;BME280;51070;52.236;-0.892;2022-08-05T01:58:25;101143.05;;;14.59;57.11
62928;BME280;51070;52.236;-0.892;2022-08-05T02:00:52;101148.59;;;14.59;57.13
62928;BME280;51070;52.236;-0.892;2022-08-05T02:03:51;101154.30;;;14.57;57.28
62928;BME280;51070;52.236;-0.892;2022-08-05T02:06:09;101158.66;;;14.57;57.52
62928;BME280;51070;52.236;-0.892;2022-08-05T02:08:35;101164.92;;;14.58;57.58
62928;BME280;51070;52.236;-0.892;2022-08-05T02:11:10;101171.72;;;14.58;57.82
62928;BME280;51070;52.236;-0.892;2022-08-05T02:21:14;101172.84;;;14.54;57.87
62928;BME280;51070;52.236;-0.892;2022-08-05T02:23:41;101173.98;;;14.50;58.07
62928;BME280;51070;52.236;-0.892;2022-08-05T02:26:08;101173.94;;;14.49;58.14
62928;BME280;51070;52.236;-0.892;2022-08-05T02:28:35;101180.11;;;14.46;58.23
62928;BME280;51070;52.236;-0.892;2022-08-05T02:31:06;101184.52;;;14.41;58.43
62928;BME280;51070;52.236;-0.892;2022-08-05T02:33:35;101184.77;;;14.38;58.39
62928;BME280;51070;52.236;-0.892;2022-08-05T02:36:02;101184.20;;;14.36;58.62
62928;BME280;51070;52.236;-0.892;2022-08-05T02:38:27;101175.59;;;14.32;58.68
62928;BME280;51070;52.236;-0.892;2022-08-05T02:40:54;101174.24;;;14.27;58.87
62928;BME280;51070;52.236;-0.892;2022-08-05T02:43:20;101178.27;;;14.21;58.94
62928;BME280;51070;52.236;-0.892;2022-08-05T02:45:46;101175.85;;;14.15;59.15
62928;BME280;51070;52.236;-0.892;2022-08-05T02:48:11;101181.50;;;14.11;59.30
62928;BME280;51070;52.236;-0.892;2022-08-05T02:50:37;101185.44;;;14.08;59.25
62928;BME280;51070;52.236;-0.892;2022-08-05T02:53:06;101181.15;;;14.04;59.45
62928;BME280;51070;52.236;-0.892;2022-08-05T02:55:31;101180.73;;;14.02;59.67
62928;BME280;51070;52.236;-0.892;2022-08-05T02:57:58;101184.33;;;14.00;59.78
62928;BME280;51070;52.236;-0.892;2022-08-05T03:00:24;101179.75;;;13.97;59.88
62928;BME280;51070;52.236;-0.892;2022-08-05T03:02:49;101183.00;;;13.95;60.10
62928;BME280;51070;52.236;-0.892;2022-08-05T03:05:16;101183.08;;;13.91;59.98
62928;BME280;51070;52.236;-0.892;2022-08-05T03:07:42;101179.30;;;13.86;60.19
62928;BME280;51070;52.236;-0.892;2022-08-05T03:10:09;101177.52;;;13.85;60.33
62928;BME280;51070;52.236;-0.892;2022-08-05T03:12:36;101180.04;;;13.82;60.42
62928;BME280;51070;52.236;-0.892;2022-08-05T03:15:05;101180.46;;;13.77;60.65
62928;BME280;51070;52.236;-0.892;2022-08-05T03:17:31;101181.59;;;13.74;60.85
62928;BME280;51070;52.236;-0.892;2022-08-05T03:19:56;101184.67;;;13.73;60.79
62928;BME280;51070;52.236;-0.892;2022-08-05T03:22:22;101190.36;;;13.71;60.96
62928;BME280;51070;52.236;-0.892;2022-08-05T03:24:48;101188.71;;;13.68;61.12
62928;BME280;51070;52.236;-0.892;2022-08-05T03:27:14;101191.23;;;13.65;61.19
62928;BME280;51070;52.236;-0.892;2022-08-05T03:29:40;101194.15;;;13.63;61.26
62928;BME280;51070;52.236;-0.892;2022-08-05T03:32:07;101201.02;;;13.61;61.34
62928;BME280;51070;52.236;-0.892;2022-08-05T03:34:32;101201.07;;;13.57;61.53
62928;BME280;51070;52.236;-0.892;2022-08-05T03:36:58;101201.89;;;13.55;61.57
62928;BME280;51070;52.236;-0.892;2022-08-05T03:39:23;101201.98;;;13.52;61.53
62928;BME280;51070;52.236;-0.892;2022-08-05T03:41:49;101198.58;;;13.48;61.71
62928;BME280;51070;52.236;-0.892;2022-08-05T03:44:14;101200.73;;;13.44;61.92
62928;BME280;51070;52.236;-0.892;2022-08-05T03:46:39;101202.89;;;13.41;62.14
62928;BME280;51070;52.236;-0.892;2022-08-05T03:49:05;101206.95;;;13.37;62.03
62928;BME280;51070;52.236;-0.892;2022-08-05T03:54:20;101213.21;;;13.25;62.24
62928;BME280;51070;52.236;-0.892;2022-08-05T03:56:47;101213.08;;;13.21;62.41
62928;BME280;51070;52.236;-0.892;2022-08-05T03:59:19;101216.98;;;13.18;62.39
62928;BME280;51070;52.236;-0.892;2022-08-05T04:01:46;101217.98;;;13.17;62.40
62928;BME280;51070;52.236;-0.892;2022-08-05T04:04:13;101219.64;;;13.14;62.54
62928;BME280;51070;52.236;-0.892;2022-08-05T04:06:39;101225.74;;;13.10;62.69
62928;BME280;51070;52.236;-0.892;2022-08-05T04:09:05;101231.24;;;13.09;62.61
62928;BME280;51070;52.236;-0.892;2022-08-05T04:11:31;101233.11;;;13.07;62.65
62928;BME280;51070;52.236;-0.892;2022-08-05T04:13:57;101237.02;;;13.04;62.70
62928;BME280;51070;52.236;-0.892;2022-08-05T04:16:23;101241.94;;;13.01;62.77
62928;BME280;51070;52.236;-0.892;2022-08-05T04:18:49;101240.52;;;12.99;62.67
62928;BME280;51070;52.236;-0.892;2022-08-05T04:21:15;101243.35;;;12.96;62.70
62928;BME280;51070;52.236;-0.892;2022-08-05T04:23:40;101247.54;;;12.91;62.80
62928;BME280;51070;52.236;-0.892;2022-08-05T04:26:05;101251.94;;;12.87;62.88
62928;BME280;51070;52.236;-0.892;2022-08-05T04:28:31;101252.77;;;12.86;62.95
62928;BME280;51070;52.236;-0.892;2022-08-05T04:30:56;101255.16;;;12.85;63.19
62928;BME280;51070;52.236;-0.892;2022-08-05T04:33:21;101257.98;;;12.86;63.19
62928;BME280;51070;52.236;-0.892;2022-08-05T04:35:47;101255.55;;;12.87;63.23
62928;BME280;51070;52.236;-0.892;2022-08-05T04:38:12;101256.61;;;12.87;63.28
62928;BME280;51070;52.236;-0.892;2022-08-05T04:40:38;101256.75;;;12.86;63.46
62928;BME280;51070;52.236;-0.892;2022-08-05T04:43:04;101260.24;;;12.87;63.43
62928;BME280;51070;52.236;-0.892;2022-08-05T04:45:29;101255.85;;;12.85;63.50
62928;BME280;51070;52.236;-0.892;2022-08-05T04:48:08;101260.84;;;12.83;63.67
62928;BME280;51070;52.236;-0.892;2022-08-05T04:50:40;101259.05;;;12.82;63.67
62928;BME280;51070;52.236;-0.892;2022-08-05T04:53:07;101260.98;;;12.83;64.06
62928;BME280;51070;52.236;-0.892;2022-08-05T04:55:32;101266.73;;;12.84;63.84
62928;BME280;51070;52.236;-0.892;2022-08-05T04:57:58;101265.98;;;12.87;63.78
62928;BME280;51070;52.236;-0.892;2022-08-05T05:00:23;101265.88;;;12.89;63.94
62928;BME280;51070;52.236;-0.892;2022-08-05T05:02:48;101264.70;;;12.91;63.79
62928;BME280;51070;52.236;-0.892;2022-08-05T05:05:14;101261.40;;;12.91;63.88
62928;BME280;51070;52.236;-0.892;2022-08-05T05:07:39;101263.64;;;12.90;64.04
62928;BME280;51070;52.236;-0.892;2022-08-05T05:10:05;101266.09;;;12.91;63.99
62928;BME280;51070;52.236;-0.892;2022-08-05T05:12:31;101268.36;;;12.92;63.96
62928;BME280;51070;52.236;-0.892;2022-08-05T05:14:56;101269.77;;;12.97;64.01
62928;BME280;51070;52.236;-0.892;2022-08-05T05:17:21;101268.58;;;13.04;63.84
62928;BME280;51070;52.236;-0.892;2022-08-05T05:19:47;101264.88;;;13.12;63.94
62928;BME280;51070;52.236;-0.892;2022-08-05T05:22:12;101261.13;;;13.20;63.55
62928;BME280;51070;52.236;-0.892;2022-08-05T05:24:38;101266.94;;;13.29;63.40
62928;BME280;51070;52.236;-0.892;2022-08-05T05:27:03;101266.80;;;13.36;63.22
62928;BME280;51070;52.236;-0.892;2022-08-05T05:29:28;101269.59;;;13.42;63.12
62928;BME280;51070;52.236;-0.892;2022-08-05T05:31:54;101272.85;;;13.47;62.99
62928;BME280;51070;52.236;-0.892;2022-08-05T05:34:21;101275.61;;;13.52;62.96
62928;BME280;51070;52.236;-0.892;2022-08-05T05:36:46;101279.89;;;13.56;62.94
62928;BME280;51070;52.236;-0.892;2022-08-05T05:39:11;101284.17;;;13.60;62.95
62928;BME280;51070;52.236;-0.892;2022-08-05T05:41:37;101286.67;;;13.62;62.79
62928;BME280;51070;52.236;-0.892;2022-08-05T05:44:02;101290.09;;;13.66;62.75
62928;BME280;51070;52.236;-0.892;2022-08-05T05:46:28;101295.44;;;13.71;62.60
62928;BME280;51070;52.236;-0.892;2022-08-05T05:48:53;101300.98;;;13.77;62.64
62928;BME280;51070;52.236;-0.892;2022-08-05T05:51:19;101300.96;;;13.82;62.59
62928;BME280;51070;52.236;-0.892;2022-08-05T05:53:45;101304.24;;;13.87;62.41
62928;BME280;51070;52.236;-0.892;2022-08-05T05:56:10;101310.55;;;13.96;62.26
62928;BME280;51070;52.236;-0.892;2022-08-05T05:58:36;101311.27;;;14.03;62.14
62928;BME280;51070;52.236;-0.892;2022-08-05T06:01:01;101317.06;;;14.11;62.26
62928;BME280;51070;52.236;-0.892;2022-08-05T06:03:26;101317.63;;;14.19;61.83
62928;BME280;51070;52.236;-0.892;2022-08-05T06:05:51;101318.27;;;14.30;61.58
62928;BME280;51070;52.236;-0.892;2022-08-05T06:08:17;101321.26;;;14.38;61.37
62928;BME280;51070;52.236;-0.892;2022-08-05T06:10:42;101321.79;;;14.38;61.28
62928;BME280;51070;52.236;-0.892;2022-08-05T06:13:07;101324.23;;;14.38;61.38
62928;BME280;51070;52.236;-0.892;2022-08-05T06:15:33;101327.11;;;14.41;61.18
62928;BME280;51070;52.236;-0.892;2022-08-05T06:17:58;101325.77;;;14.43;60.97
62928;BME280;51070;52.236;-0.892;2022-08-05T06:20:23;101331.18;;;14.44;61.03
62928;BME280;51070;52.236;-0.892;2022-08-05T06:22:49;101337.23;;;14.43;61.16
62928;BME280;51070;52.236;-0.892;2022-08-05T06:25:14;101341.02;;;14.41;61.05
62928;BME280;51070;52.236;-0.892;2022-08-05T06:27:39;101340.67;;;14.41;61.03
62928;BME280;51070;52.236;-0.892;2022-08-05T06:30:06;101344.84;;;14.41;60.93
62928;BME280;51070;52.236;-0.892;2022-08-05T06:32:31;101346.63;;;14.43;61.07
62928;BME280;51070;52.236;-0.892;2022-08-05T06:34:57;101350.16;;;14.45;61.16
62928;BME280;51070;52.236;-0.892;2022-08-05T06:37:26;101343.35;;;14.44;61.15
62928;BME280;51070;52.236;-0.892;2022-08-05T06:39:51;101348.48;;;14.46;61.06
62928;BME280;51070;52.236;-0.892;2022-08-05T06:42:17;101352.27;;;14.52;60.90
62928;BME280;51070;52.236;-0.892;2022-08-05T06:44:42;101353.65;;;14.59;60.75
62928;BME280;51070;52.236;-0.892;2022-08-05T06:47:07;101349.98;;;15.39;59.62
62928;BME280;51070;52.236;-0.892;2022-08-05T06:49:34;101346.33;;;18.02;55.25
62928;BME280;51070;52.236;-0.892;2022-08-05T06:51:59;101345.45;;;20.59;50.44
62928;BME280;51070;52.236;-0.892;2022-08-05T06:54:25;101346.27;;;22.92;46.38
62928;BME280;51070;52.236;-0.892;2022-08-05T06:56:50;101344.98;;;25.04;42.47
62928;BME280;51070;52.236;-0.892;2022-08-05T06:59:15;101341.15;;;26.87;39.03
62928;BME280;51070;52.236;-0.892;2022-08-05T07:01:40;101340.99;;;28.49;36.13
62928;BME280;51070;52.236;-0.892;2022-08-05T07:04:06;101342.98;;;29.90;34.24
62928;BME280;51070;52.236;-0.892;2022-08-05T07:06:31;101345.23;;;31.28;32.01
62928;BME280;51070;52.236;-0.892;2022-08-05T07:08:56;101344.97;;;32.42;29.35
62928;BME280;51070;52.236;-0.892;2022-08-05T07:11:22;101349.29;;;33.27;28.15
62928;BME280;51070;52.236;-0.892;2022-08-05T07:13:48;101354.05;;;34.05;26.75
62928;BME280;51070;52.236;-0.892;2022-08-05T07:16:32;101352.09;;;34.80;25.76
62928;BME280;51070;52.236;-0.892;2022-08-05T07:19:19;101357.20;;;35.53;24.54
62928;BME280;51070;52.236;-0.892;2022-08-05T07:21:46;101358.30;;;35.84;23.79
62928;BME280;51070;52.236;-0.892;2022-08-05T07:24:12;101364.89;;;34.50;24.41
62928;BME280;51070;52.236;-0.892;2022-08-05T07:26:37;101367.90;;;32.36;25.84
62928;BME280;51070;52.236;-0.892;2022-08-05T07:29:03;101368.06;;;30.65;27.37
62928;BME280;51070;52.236;-0.892;2022-08-05T07:31:28;101372.33;;;29.68;28.39
62928;BME280;51070;52.236;-0.892;2022-08-05T07:33:53;101372.23;;;29.16;28.69
62928;BME280;51070;52.236;-0.892;2022-08-05T07:36:19;101375.47;;;29.50;28.14
62928;BME280;51070;52.236;-0.892;2022-08-05T07:38:44;101376.06;;;28.47;29.59
62928;BME280;51070;52.236;-0.892;2022-08-05T07:41:11;101377.98;;;27.25;30.70
62928;BME280;51070;52.236;-0.892;2022-08-05T07:43:36;101376.39;;;26.20;32.09
62928;BME280;51070;52.236;-0.892;2022-08-05T07:46:02;101374.79;;;25.32;33.17
62928;BME280;51070;52.236;-0.892;2022-08-05T07:48:27;101378.60;;;24.73;34.31
62928;BME280;51070;52.236;-0.892;2022-08-05T07:50:53;101378.34;;;24.44;34.52
62928;BME280;51070;52.236;-0.892;2022-08-05T07:53:18;101383.51;;;24.39;34.94
62928;BME280;51070;52.236;-0.892;2022-08-05T07:55:44;101377.17;;;24.97;34.35
62928;BME280;51070;52.236;-0.892;2022-08-05T07:58:09;101376.17;;;25.13;34.28
62928;BME280;51070;52.236;-0.892;2022-08-05T08:00:35;101378.39;;;26.57;32.42
62928;BME280;51070;52.236;-0.892;2022-08-05T08:03:00;101373.88;;;28.37;30.48
62928;BME280;51070;52.236;-0.892;2022-08-05T08:05:26;101373.58;;;30.10;28.64
62928;BME280;51070;52.236;-0.892;2022-08-05T08:07:52;101377.76;;;31.79;26.74
62928;BME280;51070;52.236;-0.892;2022-08-05T08:10:20;101373.52;;;33.01;25.14
62928;BME280;51070;52.236;-0.892;2022-08-05T08:12:45;101373.70;;;33.77;23.87
62928;BME280;51070;52.236;-0.892;2022-08-05T08:15:11;101378.16;;;34.16;23.20
62928;BME280;51070;52.236;-0.892;2022-08-05T08:17:36;101372.53;;;34.77;22.82
62928;BME280;51070;52.236;-0.892;2022-08-05T08:20:01;101380.23;;;35.64;21.98
62928;BME280;51070;52.236;-0.892;2022-08-05T08:22:29;101377.77;;;36.59;21.08
62928;BME280;51070;52.236;-0.892;2022-08-05T08:24:55;101380.35;;;37.19;20.36
62928;BME280;51070;52.236;-0.892;2022-08-05T08:27:20;101385.71;;;37.71;19.48
62928;BME280;51070;52.236;-0.892;2022-08-05T08:29:46;101386.75;;;36.88;19.74
62928;BME280;51070;52.236;-0.892;2022-08-05T08:32:11;101392.48;;;35.86;20.26
62928;BME280;51070;52.236;-0.892;2022-08-05T08:34:36;101387.54;;;34.81;20.77
62928;BME280;51070;52.236;-0.892;2022-08-05T08:37:02;101391.07;;;34.16;21.25
62928;BME280;51070;52.236;-0.892;2022-08-05T08:39:27;101395.84;;;34.08;21.45
62928;BME280;51070;52.236;-0.892;2022-08-05T08:41:53;101394.42;;;33.54;21.85
62928;BME280;51070;52.236;-0.892;2022-08-05T08:44:22;101389.77;;;34.00;21.66
62928;BME280;51070;52.236;-0.892;2022-08-05T08:46:48;101391.95;;;35.19;20.75
62928;BME280;51070;52.236;-0.892;2022-08-05T08:49:13;101400.79;;;36.06;19.39
62928;BME280;51070;52.236;-0.892;2022-08-05T08:51:40;101398.91;;;36.81;18.60
62928;BME280;51070;52.236;-0.892;2022-08-05T08:54:06;101397.11;;;37.37;18.25
62928;BME280;51070;52.236;-0.892;2022-08-05T08:56:32;101401.60;;;37.86;17.87
62928;BME280;51070;52.236;-0.892;2022-08-05T08:58:57;101393.48;;;38.33;17.15
62928;BME280;51070;52.236;-0.892;2022-08-05T09:01:24;101394.95;;;38.45;17.11
62928;BME280;51070;52.236;-0.892;2022-08-05T09:03:50;101390.23;;;38.77;17.11
62928;BME280;51070;52.236;-0.892;2022-08-05T09:06:15;101393.81;;;39.13;16.97
62928;BME280;51070;52.236;-0.892;2022-08-05T09:08:41;101396.83;;;39.55;16.36
62928;BME280;51070;52.236;-0.892;2022-08-05T09:11:07;101397.99;;;40.02;16.11
62928;BME280;51070;52.236;-0.892;2022-08-05T09:13:33;101399.39;;;40.27;15.58
62928;BME280;51070;52.236;-0.892;2022-08-05T09:15:59;101402.79;;;38.46;16.42
62928;BME280;51070;52.236;-0.892;2022-08-05T09:18:25;101397.88;;;38.30;16.04
62928;BME280;51070;52.236;-0.892;2022-08-05T09:20:50;101396.67;;;38.68;16.32
62928;BME280;51070;52.236;-0.892;2022-08-05T09:23:16;101396.29;;;39.04;15.98
62928;BME280;51070;52.236;-0.892;2022-08-05T09:25:43;101396.34;;;39.39;15.82
62928;BME280;51070;52.236;-0.892;2022-08-05T09:30:34;101395.95;;;39.89;15.50
62928;BME280;51070;52.236;-0.892;2022-08-05T09:33:00;101401.65;;;38.49;16.17
62928;BME280;51070;52.236;-0.892;2022-08-05T09:35:26;101407.19;;;36.06;17.20
62928;BME280;51070;52.236;-0.892;2022-08-05T09:37:51;101403.98;;;35.55;17.20
62928;BME280;51070;52.236;-0.892;2022-08-05T09:40:30;101400.41;;;36.23;17.58
62928;BME280;51070;52.236;-0.892;2022-08-05T09:42:56;101399.33;;;37.02;16.89
62928;BME280;51070;52.236;-0.892;2022-08-05T09:45:26;101401.07;;;37.50;16.52
62928;BME280;51070;52.236;-0.892;2022-08-05T09:47:58;101410.13;;;36.94;16.33
62928;BME280;51070;52.236;-0.892;2022-08-05T09:50:33;101407.14;;;36.80;16.25
62928;BME280;51070;52.236;-0.892;2022-08-05T09:52:58;101404.56;;;37.08;16.12
62928;BME280;51070;52.236;-0.892;2022-08-05T09:55:23;101403.80;;;37.29;16.09
62928;BME280;51070;52.236;-0.892;2022-08-05T09:57:49;101399.77;;;37.64;16.02
62928;BME280;51070;52.236;-0.892;2022-08-05T10:00:18;101396.56;;;36.97;16.53
62928;BME280;51070;52.236;-0.892;2022-08-05T10:02:48;101398.73;;;35.34;17.68
62928;BME280;51070;52.236;-0.892;2022-08-05T10:05:15;101407.65;;;34.08;18.58
62928;BME280;51070;52.236;-0.892;2022-08-05T10:07:58;101405.20;;;34.17;18.62
62928;BME280;51070;52.236;-0.892;2022-08-05T10:10:30;101411.30;;;34.71;18.41
62928;BME280;51070;52.236;-0.892;2022-08-05T10:12:57;101408.17;;;35.18;18.23
62928;BME280;51070;52.236;-0.892;2022-08-05T10:20:27;101415.02;;;35.80;17.79
62928;BME280;51070;52.236;-0.892;2022-08-05T10:22:53;101415.11;;;35.82;17.84
62928;BME280;51070;52.236;-0.892;2022-08-05T10:25:18;101416.21;;;35.78;17.36
62928;BME280;51070;52.236;-0.892;2022-08-05T10:27:44;101420.71;;;35.54;17.30
62928;BME280;51070;52.236;-0.892;2022-08-05T10:30:10;101423.09;;;35.33;18.04
62928;BME280;51070;52.236;-0.892;2022-08-05T10:32:36;101420.18;;;35.37;17.95
62928;BME280;51070;52.236;-0.892;2022-08-05T10:35:01;101421.23;;;35.22;17.77
62928;BME280;51070;52.236;-0.892;2022-08-05T10:37:27;101421.89;;;35.23;17.99
62928;BME280;51070;52.236;-0.892;2022-08-05T10:39:55;101417.28;;;35.34;17.89
62928;BME280;51070;52.236;-0.892;2022-08-05T10:42:23;101426.05;;;34.52;18.40
62928;BME280;51070;52.236;-0.892;2022-08-05T10:44:49;101429.77;;;33.60;18.76
62928;BME280;51070;52.236;-0.892;2022-08-05T10:47:15;101422.14;;;33.42;19.33
62928;BME280;51070;52.236;-0.892;2022-08-05T10:52:41;101430.26;;;33.71;19.31
62928;BME280;51070;52.236;-0.892;2022-08-05T10:55:09;101431.28;;;33.52;19.29
62928;BME280;51070;52.236;-0.892;2022-08-05T10:57:35;101430.80;;;32.50;19.51
62928;BME280;51070;52.236;-0.892;2022-08-05T11:00:07;101435.25;;;31.27;20.55
62928;BME280;51070;52.236;-0.892;2022-08-05T11:02:34;101435.42;;;30.26;21.51
62928;BME280;51070;52.236;-0.892;2022-08-05T11:05:01;101435.30;;;29.81;21.98
62928;BME280;51070;52.236;-0.892;2022-08-05T11:07:28;101440.16;;;29.49;22.47
62928;BME280;51070;52.236;-0.892;2022-08-05T11:09:53;101438.76;;;29.33;22.95
62928;BME280;51070;52.236;-0.892;2022-08-05T11:14:47;101457.05;;;28.33;24.14
62928;BME280;51070;52.236;-0.892;2022-08-05T11:19:58;101459.46;;;28.24;24.10
62928;BME280;51070;52.236;-0.892;2022-08-05T11:22:41;101457.60;;;28.27;24.64
62928;BME280;51070;52.236;-0.892;2022-08-05T11:27:51;101456.07;;;28.42;24.75
62928;BME280;51070;52.236;-0.892;2022-08-05T11:30:16;101455.94;;;28.63;24.39
62928;BME280;51070;52.236;-0.892;2022-08-05T11:32:41;101461.69;;;28.67;24.35
62928;BME280;51070;52.236;-0.892;2022-08-05T11:35:07;101462.86;;;28.35;24.44
62928;BME280;51070;52.236;-0.892;2022-08-05T11:40:04;101455.11;;;27.48;25.43
62928;BME280;51070;52.236;-0.892;2022-08-05T11:42:31;101465.11;;;27.11;25.92
62928;BME280;51070;52.236;-0.892;2022-08-05T11:44:59;101469.92;;;26.63;26.16
62928;BME280;51070;52.236;-0.892;2022-08-05T11:47:26;101472.73;;;26.13;26.83
62928;BME280;51070;52.236;-0.892;2022-08-05T11:49:55;101476.66;;;25.84;27.06
62928;BME280;51070;52.236;-0.892;2022-08-05T11:52:21;101474.30;;;25.78;27.22
62928;BME280;51070;52.236;-0.892;2022-08-05T11:54:47;101470.90;;;25.99;26.80
62928;BME280;51070;52.236;-0.892;2022-08-05T11:57:14;101466.63;;;26.00;26.40
62928;BME280;51070;52.236;-0.892;2022-08-05T11:59:41;101473.25;;;25.96;26.66
62928;BME280;51070;52.236;-0.892;2022-08-05T12:02:07;101476.25;;;25.87;26.74
62928;BME280;51070;52.236;-0.892;2022-08-05T12:04:37;101471.41;;;25.90;26.99
62928;BME280;51070;52.236;-0.892;2022-08-05T12:07:03;101469.40;;;26.12;26.91
62928;BME280;51070;52.236;-0.892;2022-08-05T12:09:30;101471.11;;;26.14;26.86
62928;BME280;51070;52.236;-0.892;2022-08-05T12:12:00;101469.22;;;26.21;26.83
62928;BME280;51070;52.236;-0.892;2022-08-05T12:14:25;101471.23;;;26.36;26.43
62928;BME280;51070;52.236;-0.892;2022-08-05T12:16:59;101472.12;;;26.52;26.02
62928;BME280;51070;52.236;-0.892;2022-08-05T12:19:30;101467.76;;;26.65;26.00
62928;BME280;51070;52.236;-0.892;2022-08-05T12:22:04;101467.88;;;26.67;25.75
62928;BME280;51070;52.236;-0.892;2022-08-05T12:24:30;101472.59;;;26.63;25.73
62928;BME280;51070;52.236;-0.892;2022-08-05T12:26:55;101471.45;;;26.58;25.99
62928;BME280;51070;52.236;-0.892;2022-08-05T12:29:22;101471.30;;;26.65;25.69
62928;BME280;51070;52.236;-0.892;2022-08-05T12:31:48;101473.44;;;26.65;25.44
62928;BME280;51070;52.236;-0.892;2022-08-05T12:34:15;101468.37;;;26.61;25.46
62928;BME280;51070;52.236;-0.892;2022-08-05T12:36:40;101469.37;;;26.56;25.64
62928;BME280;51070;52.236;-0.892;2022-08-05T12:39:06;101470.05;;;26.34;25.77
62928;BME280;51070;52.236;-0.892;2022-08-05T12:41:32;101478.40;;;26.13;26.10
62928;BME280;51070;52.236;-0.892;2022-08-05T12:44:06;101473.02;;;25.90;26.41
62928;BME280;51070;52.236;-0.892;2022-08-05T12:46:32;101479.06;;;25.79;26.59
62928;BME280;51070;52.236;-0.892;2022-08-05T12:48:59;101481.39;;;25.59;27.01
62928;BME280;51070;52.236;-0.892;2022-08-05T12:51:25;101484.89;;;25.60;27.07
62928;BME280;51070;52.236;-0.892;2022-08-05T12:53:51;101485.65;;;25.59;27.09
62928;BME280;51070;52.236;-0.892;2022-08-05T12:56:22;101486.08;;;25.64;27.26
62928;BME280;51070;52.236;-0.892;2022-08-05T13:01:33;101484.67;;;25.62;26.35
62928;BME280;51070;52.236;-0.892;2022-08-05T13:04:01;101485.53;;;25.64;26.44
62928;BME280;51070;52.236;-0.892;2022-08-05T13:06:27;101482.45;;;25.69;26.38
62928;BME280;51070;52.236;-0.892;2022-08-05T13:08:53;101480.92;;;25.74;26.51
62928;BME280;51070;52.236;-0.892;2022-08-05T13:11:21;101482.73;;;25.82;26.74
62928;BME280;51070;52.236;-0.892;2022-08-05T13:13:48;101487.46;;;25.84;26.09
62928;BME280;51070;52.236;-0.892;2022-08-05T13:16:14;101485.30;;;25.77;26.12
62928;BME280;51070;52.236;-0.892;2022-08-05T13:18:49;101492.39;;;25.76;26.21
62928;BME280;51070;52.236;-0.892;2022-08-05T13:21:14;101486.07;;;25.73;26.12